sensor_id;sensor_type;location;lat;lon;timestamp;P1;durP1;ratioP1;P2;durP2;ratioP2
64361;SDS011;50685;53.346;-6.296;2023-06-24T00:00:27;7.25;;;2.17;;
64361;SDS011;50685;53.346;-6.296;2023-06-24T00:02:53;5.78;;;2.13;;
64361;SDS011;50685;53.346;-6.296;2023-06-24T00:05:19;3.30;;;1.45;;
64361;SDS011;50685;53.346;-6.296;2023-06-24T00:07:47;5.97;;;1.80;;
64361;SDS011;50685;53.346;-6.296;2023-06-24T00:10:15;3.72;;;2.35;;
64361;SDS011;50685;53.346;-6.296;2023-06-24T00:12:41;7.18;;;2.28;;
64361;SDS011;50685;53.346;-6.296;2023-06-24T00:15:07;4.22;;;1.95;;
64361;SDS011;50685;53.346;-6.296;2023-06-24T00:17:34;4.55;;;2.17;;
64361;SDS011;50685;53.346;-6.296;2023-06-24T00:20:11;5.18;;;1.95;;
64361;SDS011;50685;53.346;-6.296;2023-06-24T00:22:39;8.23;;;2.10;;
64361;SDS011;50685;53.346;-6.296;2023-06-24T00:25:09;5.65;;;1.73;;
64361;SDS011;50685;53.346;-6.296;2023-06-24T00:27:38;6.30;;;2.17;;
64361;SDS011;50685;53.346;-6.296;2023-06-24T00:30:03;6.88;;;2.35;;
64361;SDS011;50685;53.346;-6.296;2023-06-24T00:32:29;5.93;;;2.00;;
64361;SDS011;50685;53.346;-6.296;2023-06-24T00:34:58;7.85;;;2.15;;
64361;SDS011;50685;53.346;-6.296;2023-06-24T00:37:25;6.25;;;2.38;;
64361;SDS011;50685;53.346;-6.296;2023-06-24T00:40:01;5.97;;;1.90;;
64361;SDS011;50685;53.346;-6.296;2023-06-24T00:42:31;4.13;;;1.73;;
64361;SDS011;50685;53.346;-6.296;2023-06-24T00:44:57;7.78;;;2.22;;
64361;SDS011;50685;53.346;-6.296;2023-06-24T00:47:29;3.72;;;1.90;;
64361;SDS011;50685;53.346;-6.296;2023-06-24T00:49:56;4.15;;;1.98;;
64361;SDS011;50685;53.346;-6.296;2023-06-24T00:52:41;4.28;;;2.05;;
64361;SDS011;50685;53.346;-6.296;2023-06-24T00:55:15;8.55;;;2.45;;
64361;SDS011;50685;53.346;-6.296;2023-06-24T00:57:48;8.20;;;2.20;;
64361;SDS011;50685;53.346;-6.296;2023-06-24T01:00:19;4.93;;;1.92;;
64361;SDS011;50685;53.346;-6.296;2023-06-24T01:03:14;5.70;;;1.95;;
64361;SDS011;50685;53.346;-6.296;2023-06-24T01:05:43;7.85;;;2.53;;
64361;SDS011;50685;53.346;-6.296;2023-06-24T01:10:39;13.15;;;3.08;;
64361;SDS011;50685;53.346;-6.296;2023-06-24T01:13:07;6.82;;;2.28;;
64361;SDS011;50685;53.346;-6.296;2023-06-24T01:15:34;14.50;;;3.65;;
64361;SDS011;50685;53.346;-6.296;2023-06-24T01:26:21;9.23;;;3.10;;
64361;SDS011;50685;53.346;-6.296;2023-06-24T01:32:10;13.25;;;3.00;;
64361;SDS011;50685;53.346;-6.296;2023-06-24T01:35:08;7.55;;;2.60;;
64361;SDS011;50685;53.346;-6.296;2023-06-24T01:43:05;5.47;;;2.40;;
64361;SDS011;50685;53.346;-6.296;2023-06-24T01:45:44;6.70;;;2.50;;
64361;SDS011;50685;53.346;-6.296;2023-06-24T01:48:16;7.53;;;3.03;;
64361;SDS011;50685;53.346;-6.296;2023-06-24T01:50:48;7.07;;;2.40;;
64361;SDS011;50685;53.346;-6.296;2023-06-24T01:53:29;6.47;;;2.50;;
64361;SDS011;50685;53.346;-6.296;2023-06-24T01:56:03;7.50;;;3.15;;
64361;SDS011;50685;53.346;-6.296;2023-06-24T01:58:30;9.63;;;2.95;;
64361;SDS011;50685;53.346;-6.296;2023-06-24T02:01:10;7.40;;;2.70;;
64361;SDS011;50685;53.346;-6.296;2023-06-24T02:03:37;6.50;;;2.72;;
64361;SDS011;50685;53.346;-6.296;2023-06-24T02:06:04;6.85;;;3.20;;
64361;SDS011;50685;53.346;-6.296;2023-06-24T02:08:34;7.88;;;2.70;;
64361;SDS011;50685;53.346;-6.296;2023-06-24T02:11:02;8.35;;;2.45;;
64361;SDS011;50685;53.346;-6.296;2023-06-24T02:13:30;10.18;;;2.88;;
64361;SDS011;50685;53.346;-6.296;2023-06-24T02:15:58;7.28;;;2.85;;
64361;SDS011;50685;53.346;-6.296;2023-06-24T02:18:52;6.82;;;3.13;;
64361;SDS011;50685;53.346;-6.296;2023-06-24T02:21:16;6.03;;;2.42;;
64361;SDS011;50685;53.346;-6.296;2023-06-24T02:23:47;5.20;;;2.10;;
64361;SDS011;50685;53.346;-6.296;2023-06-24T02:26:16;7.00;;;2.72;;
64361;SDS011;50685;53.346;-6.296;2023-06-24T02:28:46;5.80;;;2.08;;
64361;SDS011;50685;53.346;-6.296;2023-06-24T02:31:17;3.90;;;2.38;;
64361;SDS011;50685;53.346;-6.296;2023-06-24T02:33:46;9.48;;;2.60;;
64361;SDS011;50685;53.346;-6.296;2023-06-24T02:36:18;7.70;;;2.42;;
64361;SDS011;50685;53.346;-6.296;2023-06-24T02:38:43;6.78;;;2.38;;
64361;SDS011;50685;53.346;-6.296;2023-06-24T02:41:09;8.10;;;2.83;;
64361;SDS011;50685;53.346;-6.296;2023-06-24T02:43:34;11.07;;;2.85;;
64361;SDS011;50685;53.346;-6.296;2023-06-24T02:46:08;5.85;;;2.72;;
64361;SDS011;50685;53.346;-6.296;2023-06-24T02:48:36;6.82;;;3.00;;
64361;SDS011;50685;53.346;-6.296;2023-06-24T02:51:04;5.93;;;2.65;;
64361;SDS011;50685;53.346;-6.296;2023-06-24T02:53:32;3.83;;;2.10;;
64361;SDS011;50685;53.346;-6.296;2023-06-24T02:55:58;8.77;;;3.15;;
64361;SDS011;50685;53.346;-6.296;2023-06-24T02:58:25;10.85;;;3.08;;
64361;SDS011;50685;53.346;-6.296;2023-06-24T03:00:56;5.97;;;2.22;;
64361;SDS011;50685;53.346;-6.296;2023-06-24T03:03:26;4.25;;;2.55;;
64361;SDS011;50685;53.346;-6.296;2023-06-24T03:05:53;4.50;;;1.83;;
64361;SDS011;50685;53.346;-6.296;2023-06-24T03:08:27;5.40;;;2.08;;
64361;SDS011;50685;53.346;-6.296;2023-06-24T03:10:54;4.55;;;1.98;;
64361;SDS011;50685;53.346;-6.296;2023-06-24T03:13:21;4.40;;;2.10;;
64361;SDS011;50685;53.346;-6.296;2023-06-24T03:15:50;6.28;;;2.40;;
64361;SDS011;50685;53.346;-6.296;2023-06-24T03:18:16;4.82;;;1.90;;
64361;SDS011;50685;53.346;-6.296;2023-06-24T03:20:42;3.08;;;1.80;;
64361;SDS011;50685;53.346;-6.296;2023-06-24T03:23:21;5.70;;;2.25;;
64361;SDS011;50685;53.346;-6.296;2023-06-24T03:25:46;7.28;;;2.15;;
64361;SDS011;50685;53.346;-6.296;2023-06-24T03:28:12;5.03;;;2.00;;
64361;SDS011;50685;53.346;-6.296;2023-06-24T03:30:37;7.50;;;2.30;;
64361;SDS011;50685;53.346;-6.296;2023-06-24T03:33:06;4.40;;;1.98;;
64361;SDS011;50685;53.346;-6.296;2023-06-24T03:35:31;7.13;;;2.17;;
64361;SDS011;50685;53.346;-6.296;2023-06-24T03:37:57;2.92;;;1.60;;
64361;SDS011;50685;53.346;-6.296;2023-06-24T03:40:23;2.50;;;1.38;;
64361;SDS011;50685;53.346;-6.296;2023-06-24T03:42:54;4.47;;;1.30;;
64361;SDS011;50685;53.346;-6.296;2023-06-24T03:45:19;6.00;;;1.88;;
64361;SDS011;50685;53.346;-6.296;2023-06-24T03:47:45;5.20;;;1.70;;
64361;SDS011;50685;53.346;-6.296;2023-06-24T03:50:11;6.57;;;1.90;;
64361;SDS011;50685;53.346;-6.296;2023-06-24T03:52:36;5.88;;;1.95;;
64361;SDS011;50685;53.346;-6.296;2023-06-24T03:55:01;5.82;;;1.70;;
64361;SDS011;50685;53.346;-6.296;2023-06-24T03:57:29;4.00;;;1.75;;
64361;SDS011;50685;53.346;-6.296;2023-06-24T03:59:54;4.95;;;1.70;;
64361;SDS011;50685;53.346;-6.296;2023-06-24T04:02:20;5.15;;;1.40;;
64361;SDS011;50685;53.346;-6.296;2023-06-24T04:04:47;6.13;;;1.95;;
64361;SDS011;50685;53.346;-6.296;2023-06-24T04:07:16;2.67;;;1.60;;
64361;SDS011;50685;53.346;-6.296;2023-06-24T04:09:53;5.40;;;1.50;;
64361;SDS011;50685;53.346;-6.296;2023-06-24T04:12:20;5.35;;;2.13;;
64361;SDS011;50685;53.346;-6.296;2023-06-24T04:14:45;1.73;;;1.33;;
64361;SDS011;50685;53.346;-6.296;2023-06-24T04:17:11;3.38;;;1.80;;
64361;SDS011;50685;53.346;-6.296;2023-06-24T04:19:36;3.63;;;1.92;;
64361;SDS011;50685;53.346;-6.296;2023-06-24T04:22:02;5.63;;;1.70;;
64361;SDS011;50685;53.346;-6.296;2023-06-24T04:24:27;4.30;;;1.58;;
64361;SDS011;50685;53.346;-6.296;2023-06-24T04:26:59;4.25;;;1.75;;
64361;SDS011;50685;53.346;-6.296;2023-06-24T04:29:24;4.32;;;1.73;;
64361;SDS011;50685;53.346;-6.296;2023-06-24T04:31:50;2.88;;;1.80;;
64361;SDS011;50685;53.346;-6.296;2023-06-24T04:34:19;4.47;;;2.08;;
64361;SDS011;50685;53.346;-6.296;2023-06-24T04:36:44;7.00;;;2.15;;
64361;SDS011;50685;53.346;-6.296;2023-06-24T04:39:10;4.68;;;2.20;;
64361;SDS011;50685;53.346;-6.296;2023-06-24T04:41:36;5.30;;;2.58;;
64361;SDS011;50685;53.346;-6.296;2023-06-24T04:44:02;8.35;;;2.20;;
64361;SDS011;50685;53.346;-6.296;2023-06-24T04:46:28;4.00;;;1.83;;
64361;SDS011;50685;53.346;-6.296;2023-06-24T04:48:54;4.25;;;2.05;;
64361;SDS011;50685;53.346;-6.296;2023-06-24T04:51:20;3.95;;;2.10;;
64361;SDS011;50685;53.346;-6.296;2023-06-24T04:53:45;4.97;;;1.92;;
64361;SDS011;50685;53.346;-6.296;2023-06-24T04:56:11;3.38;;;1.88;;
64361;SDS011;50685;53.346;-6.296;2023-06-24T04:58:36;4.70;;;1.80;;
64361;SDS011;50685;53.346;-6.296;2023-06-24T05:01:02;4.38;;;1.55;;
64361;SDS011;50685;53.346;-6.296;2023-06-24T05:03:31;4.07;;;1.77;;
64361;SDS011;50685;53.346;-6.296;2023-06-24T05:05:56;4.20;;;1.65;;
64361;SDS011;50685;53.346;-6.296;2023-06-24T05:08:27;4.20;;;1.58;;
64361;SDS011;50685;53.346;-6.296;2023-06-24T05:10:53;4.90;;;1.65;;
64361;SDS011;50685;53.346;-6.296;2023-06-24T05:13:19;5.03;;;1.60;;
64361;SDS011;50685;53.346;-6.296;2023-06-24T05:15:47;2.17;;;1.45;;
64361;SDS011;50685;53.346;-6.296;2023-06-24T05:18:16;4.70;;;1.70;;
64361;SDS011;50685;53.346;-6.296;2023-06-24T05:20:41;5.43;;;1.75;;
64361;SDS011;50685;53.346;-6.296;2023-06-24T05:23:10;2.58;;;1.50;;
64361;SDS011;50685;53.346;-6.296;2023-06-24T05:25:35;5.20;;;1.40;;
64361;SDS011;50685;53.346;-6.296;2023-06-24T05:28:03;6.32;;;1.30;;
64361;SDS011;50685;53.346;-6.296;2023-06-24T05:30:29;4.22;;;1.33;;
64361;SDS011;50685;53.346;-6.296;2023-06-24T05:32:55;4.40;;;1.50;;
64361;SDS011;50685;53.346;-6.296;2023-06-24T05:35:20;4.05;;;1.15;;
64361;SDS011;50685;53.346;-6.296;2023-06-24T05:38:09;4.57;;;1.38;;
64361;SDS011;50685;53.346;-6.296;2023-06-24T05:40:37;2.70;;;1.27;;
64361;SDS011;50685;53.346;-6.296;2023-06-24T05:43:05;2.53;;;1.30;;
64361;SDS011;50685;53.346;-6.296;2023-06-24T05:45:40;4.93;;;1.33;;
64361;SDS011;50685;53.346;-6.296;2023-06-24T05:48:08;3.30;;;1.40;;
64361;SDS011;50685;53.346;-6.296;2023-06-24T05:50:34;3.58;;;1.33;;
64361;SDS011;50685;53.346;-6.296;2023-06-24T05:52:59;4.22;;;1.10;;
64361;SDS011;50685;53.346;-6.296;2023-06-24T05:55:25;2.75;;;1.80;;
64361;SDS011;50685;53.346;-6.296;2023-06-24T05:57:57;3.75;;;1.70;;
64361;SDS011;50685;53.346;-6.296;2023-06-24T06:00:22;6.35;;;1.90;;
64361;SDS011;50685;53.346;-6.296;2023-06-24T06:02:51;4.95;;;1.45;;
64361;SDS011;50685;53.346;-6.296;2023-06-24T06:05:19;2.78;;;1.73;;
64361;SDS011;50685;53.346;-6.296;2023-06-24T06:07:45;3.05;;;1.48;;
64361;SDS011;50685;53.346;-6.296;2023-06-24T06:10:13;5.82;;;1.80;;
64361;SDS011;50685;53.346;-6.296;2023-06-24T06:12:42;2.80;;;1.40;;
64361;SDS011;50685;53.346;-6.296;2023-06-24T06:15:12;5.03;;;1.10;;
64361;SDS011;50685;53.346;-6.296;2023-06-24T06:17:37;4.03;;;1.85;;
64361;SDS011;50685;53.346;-6.296;2023-06-24T06:20:03;3.03;;;1.55;;
64361;SDS011;50685;53.346;-6.296;2023-06-24T06:22:33;4.75;;;1.58;;
64361;SDS011;50685;53.346;-6.296;2023-06-24T06:25:23;6.63;;;1.40;;
64361;SDS011;50685;53.346;-6.296;2023-06-24T06:27:54;6.25;;;1.08;;
64361;SDS011;50685;53.346;-6.296;2023-06-24T06:30:22;2.97;;;1.23;;
64361;SDS011;50685;53.346;-6.296;2023-06-24T06:32:48;4.07;;;1.67;;
64361;SDS011;50685;53.346;-6.296;2023-06-24T06:35:14;7.90;;;1.48;;
64361;SDS011;50685;53.346;-6.296;2023-06-24T06:37:42;3.72;;;1.40;;
64361;SDS011;50685;53.346;-6.296;2023-06-24T06:40:25;6.28;;;1.77;;
64361;SDS011;50685;53.346;-6.296;2023-06-24T06:42:52;5.20;;;1.90;;
64361;SDS011;50685;53.346;-6.296;2023-06-24T06:45:17;6.15;;;1.65;;
64361;SDS011;50685;53.346;-6.296;2023-06-24T06:47:43;2.13;;;1.10;;
64361;SDS011;50685;53.346;-6.296;2023-06-24T06:50:18;4.47;;;1.50;;
64361;SDS011;50685;53.346;-6.296;2023-06-24T06:52:44;6.50;;;1.58;;
64361;SDS011;50685;53.346;-6.296;2023-06-24T06:55:12;6.15;;;1.70;;
64361;SDS011;50685;53.346;-6.296;2023-06-24T06:57:38;4.32;;;1.50;;
64361;SDS011;50685;53.346;-6.296;2023-06-24T07:02:41;5.00;;;1.98;;
64361;SDS011;50685;53.346;-6.296;2023-06-24T07:05:07;2.80;;;1.27;;
64361;SDS011;50685;53.346;-6.296;2023-06-24T07:07:37;3.47;;;1.20;;
64361;SDS011;50685;53.346;-6.296;2023-06-24T07:10:03;7.15;;;1.90;;
64361;SDS011;50685;53.346;-6.296;2023-06-24T07:12:39;1.48;;;1.10;;
64361;SDS011;50685;53.346;-6.296;2023-06-24T07:15:13;4.40;;;1.20;;
64361;SDS011;50685;53.346;-6.296;2023-06-24T07:17:44;2.33;;;1.30;;
64361;SDS011;50685;53.346;-6.296;2023-06-24T07:20:09;2.72;;;1.35;;
64361;SDS011;50685;53.346;-6.296;2023-06-24T07:22:37;3.85;;;1.55;;
64361;SDS011;50685;53.346;-6.296;2023-06-24T07:25:03;3.38;;;1.10;;
64361;SDS011;50685;53.346;-6.296;2023-06-24T07:27:29;1.80;;;0.77;;
64361;SDS011;50685;53.346;-6.296;2023-06-24T07:29:54;4.00;;;1.05;;
64361;SDS011;50685;53.346;-6.296;2023-06-24T07:32:23;4.35;;;1.00;;
64361;SDS011;50685;53.346;-6.296;2023-06-24T07:34:51;2.08;;;1.17;;
64361;SDS011;50685;53.346;-6.296;2023-06-24T07:37:19;3.60;;;1.02;;
64361;SDS011;50685;53.346;-6.296;2023-06-24T07:39:48;5.47;;;1.50;;
64361;SDS011;50685;53.346;-6.296;2023-06-24T07:42:16;4.30;;;1.20;;
64361;SDS011;50685;53.346;-6.296;2023-06-24T07:45:08;3.25;;;1.00;;
64361;SDS011;50685;53.346;-6.296;2023-06-24T07:47:36;7.18;;;0.98;;
64361;SDS011;50685;53.346;-6.296;2023-06-24T07:50:02;6.57;;;1.13;;
64361;SDS011;50685;53.346;-6.296;2023-06-24T07:52:31;3.47;;;1.27;;
64361;SDS011;50685;53.346;-6.296;2023-06-24T07:54:56;4.20;;;1.60;;
64361;SDS011;50685;53.346;-6.296;2023-06-24T07:57:22;4.57;;;1.42;;
64361;SDS011;50685;53.346;-6.296;2023-06-24T07:59:48;3.03;;;1.00;;
64361;SDS011;50685;53.346;-6.296;2023-06-24T08:02:13;2.28;;;1.08;;
64361;SDS011;50685;53.346;-6.296;2023-06-24T08:04:55;5.22;;;1.10;;
64361;SDS011;50685;53.346;-6.296;2023-06-24T08:07:29;16.60;;;1.42;;
64361;SDS011;50685;53.346;-6.296;2023-06-24T08:12:29;6.00;;;1.30;;
64361;SDS011;50685;53.346;-6.296;2023-06-24T08:14:57;6.85;;;1.50;;
64361;SDS011;50685;53.346;-6.296;2023-06-24T08:17:22;2.35;;;0.95;;
64361;SDS011;50685;53.346;-6.296;2023-06-24T08:19:48;6.28;;;1.25;;
64361;SDS011;50685;53.346;-6.296;2023-06-24T08:22:14;4.65;;;1.83;;
64361;SDS011;50685;53.346;-6.296;2023-06-24T08:24:42;2.97;;;1.40;;
64361;SDS011;50685;53.346;-6.296;2023-06-24T08:27:11;5.25;;;1.30;;
64361;SDS011;50685;53.346;-6.296;2023-06-24T08:29:36;7.43;;;2.08;;
64361;SDS011;50685;53.346;-6.296;2023-06-24T08:32:06;4.90;;;1.23;;
64361;SDS011;50685;53.346;-6.296;2023-06-24T08:34:40;5.28;;;1.30;;
64361;SDS011;50685;53.346;-6.296;2023-06-24T08:37:07;7.13;;;1.73;;
64361;SDS011;50685;53.346;-6.296;2023-06-24T08:42:23;3.25;;;1.13;;
64361;SDS011;50685;53.346;-6.296;2023-06-24T08:44:52;2.88;;;1.40;;
64361;SDS011;50685;53.346;-6.296;2023-06-24T08:47:18;4.20;;;1.40;;
64361;SDS011;50685;53.346;-6.296;2023-06-24T08:49:47;8.00;;;1.88;;
64361;SDS011;50685;53.346;-6.296;2023-06-24T08:52:21;6.43;;;2.00;;
64361;SDS011;50685;53.346;-6.296;2023-06-24T08:55:16;6.28;;;1.63;;
64361;SDS011;50685;53.346;-6.296;2023-06-24T08:57:42;6.50;;;1.50;;
64361;SDS011;50685;53.346;-6.296;2023-06-24T09:00:08;4.90;;;2.25;;
64361;SDS011;50685;53.346;-6.296;2023-06-24T09:02:35;5.88;;;1.52;;
64361;SDS011;50685;53.346;-6.296;2023-06-24T09:05:04;5.07;;;1.55;;
64361;SDS011;50685;53.346;-6.296;2023-06-24T09:07:30;6.25;;;1.58;;
64361;SDS011;50685;53.346;-6.296;2023-06-24T09:09:56;2.67;;;1.50;;
64361;SDS011;50685;53.346;-6.296;2023-06-24T09:12:24;7.38;;;1.90;;
64361;SDS011;50685;53.346;-6.296;2023-06-24T09:14:56;3.50;;;1.20;;
64361;SDS011;50685;53.346;-6.296;2023-06-24T09:17:22;6.25;;;1.77;;
64361;SDS011;50685;53.346;-6.296;2023-06-24T09:19:48;5.60;;;2.42;;
64361;SDS011;50685;53.346;-6.296;2023-06-24T09:22:38;3.92;;;1.35;;
64361;SDS011;50685;53.346;-6.296;2023-06-24T09:25:13;6.07;;;2.13;;
64361;SDS011;50685;53.346;-6.296;2023-06-24T09:27:46;6.72;;;2.00;;
64361;SDS011;50685;53.346;-6.296;2023-06-24T09:30:23;5.57;;;2.40;;
64361;SDS011;50685;53.346;-6.296;2023-06-24T09:32:49;7.28;;;2.25;;
64361;SDS011;50685;53.346;-6.296;2023-06-24T09:35:18;5.65;;;2.22;;
64361;SDS011;50685;53.346;-6.296;2023-06-24T09:37:52;7.13;;;2.05;;
64361;SDS011;50685;53.346;-6.296;2023-06-24T09:40:24;6.90;;;2.58;;
64361;SDS011;50685;53.346;-6.296;2023-06-24T09:42:55;4.72;;;2.10;;
64361;SDS011;50685;53.346;-6.296;2023-06-24T09:45:28;4.32;;;1.98;;
64361;SDS011;50685;53.346;-6.296;2023-06-24T09:47:54;4.57;;;2.08;;
64361;SDS011;50685;53.346;-6.296;2023-06-24T09:50:23;5.05;;;2.00;;
64361;SDS011;50685;53.346;-6.296;2023-06-24T09:53:14;2.58;;;1.70;;
64361;SDS011;50685;53.346;-6.296;2023-06-24T09:55:49;3.58;;;2.22;;
64361;SDS011;50685;53.346;-6.296;2023-06-24T09:58:16;6.88;;;2.53;;
64361;SDS011;50685;53.346;-6.296;2023-06-24T10:00:43;5.40;;;2.08;;
64361;SDS011;50685;53.346;-6.296;2023-06-24T10:03:12;3.67;;;2.00;;
64361;SDS011;50685;53.346;-6.296;2023-06-24T10:05:42;4.32;;;2.10;;
64361;SDS011;50685;53.346;-6.296;2023-06-24T10:10:59;5.30;;;2.50;;
64361;SDS011;50685;53.346;-6.296;2023-06-24T10:13:30;9.45;;;2.60;;
64361;SDS011;50685;53.346;-6.296;2023-06-24T10:15:56;7.70;;;2.38;;
64361;SDS011;50685;53.346;-6.296;2023-06-24T10:18:31;4.80;;;2.17;;
64361;SDS011;50685;53.346;-6.296;2023-06-24T10:21:00;11.55;;;3.08;;
64361;SDS011;50685;53.346;-6.296;2023-06-24T10:23:30;12.13;;;2.58;;
64361;SDS011;50685;53.346;-6.296;2023-06-24T10:26:07;6.70;;;2.88;;
64361;SDS011;50685;53.346;-6.296;2023-06-24T10:36:56;7.10;;;2.65;;
64361;SDS011;50685;53.346;-6.296;2023-06-24T10:44:49;8.77;;;2.83;;
64361;SDS011;50685;53.346;-6.296;2023-06-24T10:47:21;5.85;;;2.60;;
64361;SDS011;50685;53.346;-6.296;2023-06-24T10:50:05;6.97;;;2.63;;
64361;SDS011;50685;53.346;-6.296;2023-06-24T10:52:31;5.35;;;2.70;;
64361;SDS011;50685;53.346;-6.296;2023-06-24T10:54:58;4.30;;;2.45;;
64361;SDS011;50685;53.346;-6.296;2023-06-24T10:57:27;7.35;;;2.35;;
64361;SDS011;50685;53.346;-6.296;2023-06-24T10:59:54;7.63;;;2.40;;
64361;SDS011;50685;53.346;-6.296;2023-06-24T11:02:27;8.27;;;2.55;;
64361;SDS011;50685;53.346;-6.296;2023-06-24T11:04:59;6.95;;;2.92;;
64361;SDS011;50685;53.346;-6.296;2023-06-24T11:07:33;3.58;;;1.98;;
64361;SDS011;50685;53.346;-6.296;2023-06-24T11:10:10;8.05;;;2.80;;
64361;SDS011;50685;53.346;-6.296;2023-06-24T11:12:39;6.70;;;2.83;;
64361;SDS011;50685;53.346;-6.296;2023-06-24T11:15:07;5.43;;;2.70;;
64361;SDS011;50685;53.346;-6.296;2023-06-24T11:17:39;4.95;;;2.80;;
64361;SDS011;50685;53.346;-6.296;2023-06-24T11:20:09;5.20;;;2.30;;
64361;SDS011;50685;53.346;-6.296;2023-06-24T11:22:36;4.55;;;2.65;;
64361;SDS011;50685;53.346;-6.296;2023-06-24T11:25:16;5.45;;;2.20;;
64361;SDS011;50685;53.346;-6.296;2023-06-24T11:27:46;7.10;;;3.08;;
64361;SDS011;50685;53.346;-6.296;2023-06-24T11:30:12;7.22;;;2.53;;
64361;SDS011;50685;53.346;-6.296;2023-06-24T11:32:41;6.45;;;2.70;;
64361;SDS011;50685;53.346;-6.296;2023-06-24T11:35:10;7.97;;;2.63;;
64361;SDS011;50685;53.346;-6.296;2023-06-24T11:37:40;6.20;;;2.28;;
64361;SDS011;50685;53.346;-6.296;2023-06-24T11:40:16;2.83;;;1.90;;
64361;SDS011;50685;53.346;-6.296;2023-06-24T11:42:50;9.65;;;2.65;;
64361;SDS011;50685;53.346;-6.296;2023-06-24T11:47:51;5.72;;;2.40;;
64361;SDS011;50685;53.346;-6.296;2023-06-24T11:50:33;5.07;;;2.10;;
64361;SDS011;50685;53.346;-6.296;2023-06-24T11:53:00;4.00;;;1.95;;
64361;SDS011;50685;53.346;-6.296;2023-06-24T11:55:27;5.00;;;2.47;;
64361;SDS011;50685;53.346;-6.296;2023-06-24T11:58:03;4.38;;;2.13;;
64361;SDS011;50685;53.346;-6.296;2023-06-24T12:00:43;4.03;;;1.88;;
64361;SDS011;50685;53.346;-6.296;2023-06-24T12:03:14;4.97;;;2.15;;
64361;SDS011;50685;53.346;-6.296;2023-06-24T12:05:40;8.25;;;2.42;;
64361;SDS011;50685;53.346;-6.296;2023-06-24T12:08:10;4.75;;;2.25;;
64361;SDS011;50685;53.346;-6.296;2023-06-24T12:10:37;5.75;;;2.05;;
64361;SDS011;50685;53.346;-6.296;2023-06-24T12:13:04;8.55;;;1.73;;
64361;SDS011;50685;53.346;-6.296;2023-06-24T12:15:42;4.47;;;2.17;;
64361;SDS011;50685;53.346;-6.296;2023-06-24T12:18:07;4.53;;;2.00;;
64361;SDS011;50685;53.346;-6.296;2023-06-24T12:20:35;3.97;;;1.73;;
64361;SDS011;50685;53.346;-6.296;2023-06-24T12:23:11;6.03;;;1.42;;
64361;SDS011;50685;53.346;-6.296;2023-06-24T12:25:37;3.78;;;1.73;;
64361;SDS011;50685;53.346;-6.296;2023-06-24T12:28:02;3.30;;;1.73;;
64361;SDS011;50685;53.346;-6.296;2023-06-24T12:30:28;3.30;;;1.45;;
64361;SDS011;50685;53.346;-6.296;2023-06-24T12:32:53;2.70;;;1.10;;
64361;SDS011;50685;53.346;-6.296;2023-06-24T12:35:19;1.58;;;1.20;;
64361;SDS011;50685;53.346;-6.296;2023-06-24T12:37:48;2.85;;;1.60;;
64361;SDS011;50685;53.346;-6.296;2023-06-24T12:40:16;2.05;;;0.88;;
64361;SDS011;50685;53.346;-6.296;2023-06-24T12:42:42;4.35;;;1.58;;
64361;SDS011;50685;53.346;-6.296;2023-06-24T12:45:19;1.88;;;1.13;;
64361;SDS011;50685;53.346;-6.296;2023-06-24T12:47:48;2.75;;;1.05;;
64361;SDS011;50685;53.346;-6.296;2023-06-24T12:50:15;4.53;;;1.23;;
64361;SDS011;50685;53.346;-6.296;2023-06-24T12:52:41;1.98;;;0.98;;
64361;SDS011;50685;53.346;-6.296;2023-06-24T12:55:06;2.80;;;0.93;;
64361;SDS011;50685;53.346;-6.296;2023-06-24T12:57:32;2.75;;;0.88;;
64361;SDS011;50685;53.346;-6.296;2023-06-24T13:00:06;1.40;;;1.20;;
64361;SDS011;50685;53.346;-6.296;2023-06-24T13:02:53;1.70;;;0.98;;
64361;SDS011;50685;53.346;-6.296;2023-06-24T13:05:19;1.85;;;1.00;;
64361;SDS011;50685;53.346;-6.296;2023-06-24T13:07:50;3.35;;;0.93;;
64361;SDS011;50685;53.346;-6.296;2023-06-24T13:10:24;2.92;;;1.00;;
64361;SDS011;50685;53.346;-6.296;2023-06-24T13:15:38;3.35;;;1.13;;
64361;SDS011;50685;53.346;-6.296;2023-06-24T13:18:07;2.08;;;0.85;;
64361;SDS011;50685;53.346;-6.296;2023-06-24T13:20:44;3.05;;;1.00;;
64361;SDS011;50685;53.346;-6.296;2023-06-24T13:23:26;3.67;;;0.80;;
64361;SDS011;50685;53.346;-6.296;2023-06-24T13:26:05;1.05;;;0.95;;
64361;SDS011;50685;53.346;-6.296;2023-06-24T13:28:54;4.47;;;0.90;;
64361;SDS011;50685;53.346;-6.296;2023-06-24T13:31:38;1.33;;;1.00;;
64361;SDS011;50685;53.346;-6.296;2023-06-24T13:34:07;2.22;;;0.75;;
64361;SDS011;50685;53.346;-6.296;2023-06-24T13:36:39;1.15;;;0.80;;
64361;SDS011;50685;53.346;-6.296;2023-06-24T13:39:32;3.90;;;1.00;;
64361;SDS011;50685;53.346;-6.296;2023-06-24T13:41:58;0.70;;;0.63;;
64361;SDS011;50685;53.346;-6.296;2023-06-24T13:44:30;1.58;;;0.60;;
64361;SDS011;50685;53.346;-6.296;2023-06-24T13:49:37;0.97;;;0.47;;
64361;SDS011;50685;53.346;-6.296;2023-06-24T13:52:05;1.23;;;0.50;;
64361;SDS011;50685;53.346;-6.296;2023-06-24T13:54:31;0.63;;;0.63;;
64361;SDS011;50685;53.346;-6.296;2023-06-24T13:57:05;0.90;;;0.50;;
64361;SDS011;50685;53.346;-6.296;2023-06-24T13:59:34;1.23;;;0.50;;
64361;SDS011;50685;53.346;-6.296;2023-06-24T14:02:06;1.70;;;0.70;;
64361;SDS011;50685;53.346;-6.296;2023-06-24T14:04:33;0.70;;;0.50;;
64361;SDS011;50685;53.346;-6.296;2023-06-24T14:06:59;0.60;;;0.50;;
64361;SDS011;50685;53.346;-6.296;2023-06-24T14:09:34;1.00;;;0.57;;
64361;SDS011;50685;53.346;-6.296;2023-06-24T14:14:49;2.10;;;0.40;;
64361;SDS011;50685;53.346;-6.296;2023-06-24T14:17:17;1.15;;;0.60;;
64361;SDS011;50685;53.346;-6.296;2023-06-24T14:19:43;0.75;;;0.50;;
64361;SDS011;50685;53.346;-6.296;2023-06-24T14:22:09;0.68;;;0.40;;
64361;SDS011;50685;53.346;-6.296;2023-06-24T14:24:40;4.07;;;0.80;;
64361;SDS011;50685;53.346;-6.296;2023-06-24T14:27:52;0.98;;;0.40;;
64361;SDS011;50685;53.346;-6.296;2023-06-24T14:30:17;0.40;;;0.40;;
64361;SDS011;50685;53.346;-6.296;2023-06-24T14:32:52;2.03;;;0.50;;
64361;SDS011;50685;53.346;-6.296;2023-06-24T14:35:18;1.42;;;0.60;;
64361;SDS011;50685;53.346;-6.296;2023-06-24T14:37:43;0.65;;;0.50;;
64361;SDS011;50685;53.346;-6.296;2023-06-24T14:40:14;1.98;;;0.50;;
64361;SDS011;50685;53.346;-6.296;2023-06-24T14:42:42;1.00;;;0.40;;
64361;SDS011;50685;53.346;-6.296;2023-06-24T14:45:16;0.52;;;0.50;;
64361;SDS011;50685;53.346;-6.296;2023-06-24T14:48:05;2.55;;;0.70;;
64361;SDS011;50685;53.346;-6.296;2023-06-24T14:50:41;1.60;;;0.47;;
64361;SDS011;50685;53.346;-6.296;2023-06-24T14:53:07;1.70;;;0.50;;
64361;SDS011;50685;53.346;-6.296;2023-06-24T14:55:32;0.80;;;0.50;;
64361;SDS011;50685;53.346;-6.296;2023-06-24T14:58:01;0.57;;;0.50;;
64361;SDS011;50685;53.346;-6.296;2023-06-24T15:00:26;0.77;;;0.60;;
64361;SDS011;50685;53.346;-6.296;2023-06-24T15:02:52;3.38;;;0.68;;
64361;SDS011;50685;53.346;-6.296;2023-06-24T15:05:17;1.92;;;0.70;;
64361;SDS011;50685;53.346;-6.296;2023-06-24T15:07:59;1.98;;;0.57;;
64361;SDS011;50685;53.346;-6.296;2023-06-24T15:10:30;1.45;;;0.63;;
64361;SDS011;50685;53.346;-6.296;2023-06-24T15:13:12;1.08;;;0.52;;
64361;SDS011;50685;53.346;-6.296;2023-06-24T15:15:40;1.15;;;0.45;;
64361;SDS011;50685;53.346;-6.296;2023-06-24T15:18:06;3.35;;;0.77;;
64361;SDS011;50685;53.346;-6.296;2023-06-24T15:20:37;2.72;;;0.63;;
64361;SDS011;50685;53.346;-6.296;2023-06-24T15:23:30;1.02;;;0.70;;
64361;SDS011;50685;53.346;-6.296;2023-06-24T15:25:56;3.45;;;0.90;;
64361;SDS011;50685;53.346;-6.296;2023-06-24T15:28:24;0.90;;;0.60;;
64361;SDS011;50685;53.346;-6.296;2023-06-24T15:31:04;2.88;;;0.70;;
64361;SDS011;50685;53.346;-6.296;2023-06-24T15:33:30;1.10;;;0.80;;
64361;SDS011;50685;53.346;-6.296;2023-06-24T15:35:55;1.15;;;0.70;;
64361;SDS011;50685;53.346;-6.296;2023-06-24T15:38:24;2.13;;;0.82;;
64361;SDS011;50685;53.346;-6.296;2023-06-24T15:40:49;0.85;;;0.60;;
64361;SDS011;50685;53.346;-6.296;2023-06-24T15:43:18;2.15;;;0.88;;